Time;durP1;ratioP1;P1;durP2;ratioP2;P2;SDS_P1;SDS_P2;PMS_P1;PMS_P2;Temp;Humidity;BMP_temperature;BMP_pressure;BME280_temperature;BME280_humidity;BME280_pressure;Samples;Min_cycle;Max_cycle;Signal;HPM_P1;HPM_P2
2023/06/23 00:00:43;;;;;;;1.30;1.20;;;;;;;;;;5045457;28;20044;-60
2023/06/23 00:03:09;;;;;;;1.08;0.98;;;;;;;;;;5044138;28;20048;-61
2023/06/23 00:05:37;;;;;;;0.63;0.63;;;;;;;;;;5045282;28;20056;-61
2023/06/23 00:08:05;;;;;;;0.82;0.63;;;;;;;;;;5044854;28;20456;-61
2023/06/23 00:10:31;;;;;;;0.80;0.80;;;;;;;;;;5043543;28;20590;-60
2023/06/23 00:12:57;;;;;;;0.60;0.55;;;;;;;;;;5044791;28;20508;-60
2023/06/23 00:15:25;;;;;;;0.60;0.60;;;;;;;;;;5045472;28;20187;-60
2023/06/23 00:17:51;;;;;;;0.57;0.52;;;;;;;;;;5044483;28;20087;-60
2023/06/23 00:20:19;;;;;;;0.60;0.60;;;;;;;;;;5044861;28;20037;-60
2023/06/23 00:22:45;;;;;;;0.43;0.43;;;;;;;;;;5044964;28;20120;-60
2023/06/23 00:25:12;;;;;;;0.63;0.60;;;;;;;;;;5044052;28;20362;-61
2023/06/23 00:27:39;;;;;;;0.60;0.60;;;;;;;;;;5044414;28;20045;-61
2023/06/23 00:30:06;;;;;;;0.73;0.73;;;;;;;;;;5044460;28;20532;-61
2023/06/23 00:32:32;;;;;;;0.77;0.60;;;;;;;;;;5043826;28;20049;-60
2023/06/23 00:34:59;;;;;;;0.85;0.73;;;;;;;;;;5044404;28;20047;-59
2023/06/23 00:37:25;;;;;;;1.13;1.02;;;;;;;;;;5044344;28;20048;-60
2023/06/23 00:39:51;;;;;;;0.80;0.80;;;;;;;;;;5044261;28;20041;-60
2023/06/23 00:42:17;;;;;;;1.08;1.08;;;;;;;;;;5044161;28;20049;-60
2023/06/23 00:44:43;;;;;;;1.05;0.90;;;;;;;;;;5043805;28;20070;-60
2023/06/23 00:47:09;;;;;;;0.80;0.80;;;;;;;;;;5043901;28;20055;-60
2023/06/23 00:49:35;;;;;;;0.90;0.60;;;;;;;;;;5044339;28;20041;-60
2023/06/23 00:52:04;;;;;;;0.82;0.82;;;;;;;;;;5043415;28;20045;-60
2023/06/23 00:54:34;;;;;;;0.60;0.60;;;;;;;;;;5043974;28;20255;-60
2023/06/23 00:57:00;;;;;;;0.50;0.50;;;;;;;;;;5044173;28;20045;-60
2023/06/23 00:59:29;;;;;;;0.50;0.50;;;;;;;;;;5042848;28;20345;-60
2023/06/23 01:01:57;;;;;;;0.68;0.68;;;;;;;;;;5044674;28;20033;-60
2023/06/23 01:04:24;;;;;;;1.25;1.15;;;;;;;;;;5043979;28;20052;-60
2023/06/23 01:07:16;;;;;;;0.73;0.73;;;;;;;;;;5043155;28;20036;-60
2023/06/23 01:09:42;;;;;;;;;;;;;;;;;;5040623;28;20128;-60
2023/06/23 01:12:13;;;;;;;0.60;0.60;;;;;;;;;;5043572;28;20600;-60
2023/06/23 01:14:58;;;;;;;0.80;0.70;;;;;;;;;;5043604;28;20044;-60
2023/06/23 01:17:26;;;;;;;0.60;0.60;;;;;;;;;;5043777;28;20072;-60
2023/06/23 01:19:55;;;;;;;0.50;0.50;;;;;;;;;;5043563;28;20079;-60
2023/06/23 01:22:24;;;;;;;0.47;0.47;;;;;;;;;;5043773;28;20132;-60
2023/06/23 01:25:06;;;;;;;0.50;0.50;;;;;;;;;;5043559;28;20060;-61
2023/06/23 01:27:47;;;;;;;0.80;0.60;;;;;;;;;;5042920;28;20080;-60
2023/06/23 01:30:16;;;;;;;0.65;0.65;;;;;;;;;;5043473;28;20136;-60
2023/06/23 01:32:48;;;;;;;0.60;0.60;;;;;;;;;;5043733;28;20037;-60
2023/06/23 01:35:19;;;;;;;0.52;0.52;;;;;;;;;;5042404;28;20045;-60
2023/06/23 01:37:48;;;;;;;0.80;0.80;;;;;;;;;;5043588;28;20041;-60
2023/06/23 01:40:15;;;;;;;0.70;0.60;;;;;;;;;;5042894;28;20052;-61
2023/06/23 01:42:52;;;;;;;0.50;0.50;;;;;;;;;;5042617;28;20128;-60
2023/06/23 01:45:18;;;;;;;0.50;0.50;;;;;;;;;;5043113;28;20740;-60
2023/06/23 01:47:49;;;;;;;2.13;0.73;;;;;;;;;;5042738;28;20401;-60
2023/06/23 01:50:16;;;;;;;0.57;0.57;;;;;;;;;;5043198;28;20579;-60
2023/06/23 01:52:43;;;;;;;0.60;0.60;;;;;;;;;;5024833;28;20070;-60
2023/06/23 01:55:10;;;;;;;0.80;0.80;;;;;;;;;;5042375;28;20120;-60
2023/06/23 01:57:38;;;;;;;0.60;0.60;;;;;;;;;;5043035;28;20497;-60
2023/06/23 02:00:05;;;;;;;0.80;0.60;;;;;;;;;;5043137;28;20045;-60
2023/06/23 02:02:32;;;;;;;0.40;0.40;;;;;;;;;;5042023;28;20052;-60
2023/06/23 02:04:58;;;;;;;0.70;0.55;;;;;;;;;;5043135;28;20055;-60
2023/06/23 02:07:26;;;;;;;0.55;0.55;;;;;;;;;;5042938;28;20040;-60
2023/06/23 02:09:53;;;;;;;0.70;0.70;;;;;;;;;;5041899;28;20040;-60
2023/06/23 02:12:19;;;;;;;0.60;0.60;;;;;;;;;;5042340;28;20162;-60
2023/06/23 02:14:46;;;;;;;0.50;0.50;;;;;;;;;;5043232;28;20099;-60
2023/06/23 02:17:13;;;;;;;0.45;0.45;;;;;;;;;;5041947;28;20037;-60
2023/06/23 02:19:43;;;;;;;0.50;0.50;;;;;;;;;;5042499;28;20048;-60
2023/06/23 02:22:14;;;;;;;0.68;0.68;;;;;;;;;;5042578;28;20037;-60
2023/06/23 02:24:40;;;;;;;0.88;0.88;;;;;;;;;;5041998;28;20044;-60
2023/06/23 02:27:07;;;;;;;0.70;0.65;;;;;;;;;;5042697;28;20052;-60
2023/06/23 02:29:38;;;;;;;0.50;0.50;;;;;;;;;;5042958;28;20055;-60
2023/06/23 02:32:04;;;;;;;0.50;0.50;;;;;;;;;;5041997;28;20233;-60
2023/06/23 02:34:30;;;;;;;0.40;0.40;;;;;;;;;;5042121;28;20132;-60
2023/06/23 02:36:59;;;;;;;0.90;0.90;;;;;;;;;;5042890;28;20476;-61
2023/06/23 02:39:26;;;;;;;0.77;0.60;;;;;;;;;;5042695;28;20084;-60
2023/06/23 02:41:54;;;;;;;0.85;0.82;;;;;;;;;;5043411;28;20045;-60
2023/06/23 02:44:23;;;;;;;0.40;0.40;;;;;;;;;;5041897;28;20041;-60
2023/06/23 02:46:53;;;;;;;0.50;0.50;;;;;;;;;;5042758;28;20076;-60
2023/06/23 02:49:22;;;;;;;0.60;0.60;;;;;;;;;;5042351;28;20037;-59
2023/06/23 02:51:51;;;;;;;0.60;0.60;;;;;;;;;;5041897;28;20053;-60
2023/06/23 02:54:18;;;;;;;0.40;0.40;;;;;;;;;;5042290;28;20083;-60
2023/06/23 02:56:46;;;;;;;0.60;0.60;;;;;;;;;;5042435;28;20049;-60
2023/06/23 02:59:13;;;;;;;0.40;0.40;;;;;;;;;;5041737;28;20045;-60
2023/06/23 03:01:40;;;;;;;0.50;0.50;;;;;;;;;;5042592;28;20132;-60
2023/06/23 03:04:06;;;;;;;0.60;0.60;;;;;;;;;;5043019;28;20041;-60
2023/06/23 03:06:34;;;;;;;0.88;0.77;;;;;;;;;;5041791;28;20099;-60
2023/06/23 03:09:02;;;;;;;1.00;0.70;;;;;;;;;;5042651;28;20045;-60
2023/06/23 03:11:28;;;;;;;0.40;0.40;;;;;;;;;;5041995;28;20693;-61
2023/06/23 03:13:54;;;;;;;0.85;0.80;;;;;;;;;;5042268;28;20489;-60
2023/06/23 03:16:22;;;;;;;0.50;0.50;;;;;;;;;;5041929;28;20041;-60
2023/06/23 03:18:54;;;;;;;0.70;0.60;;;;;;;;;;5042651;28;20041;-60
2023/06/23 03:21:21;;;;;;;0.50;0.50;;;;;;;;;;5041557;28;20053;-60
2023/06/23 03:23:50;;;;;;;0.73;0.63;;;;;;;;;;5046115;28;20287;-60
2023/06/23 03:26:16;;;;;;;0.73;0.73;;;;;;;;;;5044729;28;20056;-60
2023/06/23 03:28:43;;;;;;;0.60;0.60;;;;;;;;;;5045498;28;20491;-60
2023/06/23 03:31:12;;;;;;;0.80;0.80;;;;;;;;;;5045320;28;20048;-60
2023/06/23 03:33:42;;;;;;;0.77;0.70;;;;;;;;;;5045072;28;20442;-60
2023/06/23 03:36:11;;;;;;;0.70;0.70;;;;;;;;;;5045274;28;20191;-60
2023/06/23 03:38:39;;;;;;;0.70;0.70;;;;;;;;;;5045521;28;20056;-60
2023/06/23 03:41:08;;;;;;;0.70;0.70;;;;;;;;;;5044974;28;20060;-60
2023/06/23 03:43:36;;;;;;;0.80;0.80;;;;;;;;;;5045390;28;20370;-60
2023/06/23 03:46:09;;;;;;;0.80;0.80;;;;;;;;;;5046196;28;20048;-60
2023/06/23 03:48:36;;;;;;;0.80;0.80;;;;;;;;;;5044745;28;20055;-61
2023/06/23 03:51:03;;;;;;;1.15;1.05;;;;;;;;;;5045044;28;20773;-61
2023/06/23 03:53:31;;;;;;;0.70;0.70;;;;;;;;;;5044871;28;20420;-61
2023/06/23 03:55:58;;;;;;;0.90;0.90;;;;;;;;;;5045295;28;20045;-61
2023/06/23 03:58:25;;;;;;;1.00;0.95;;;;;;;;;;5045609;28;20527;-60
2023/06/23 04:00:52;;;;;;;2.45;1.15;;;;;;;;;;5045263;28;20049;-60
2023/06/23 04:03:19;;;;;;;1.13;1.10;;;;;;;;;;5044546;28;20201;-60
2023/06/23 04:05:46;;;;;;;1.33;1.23;;;;;;;;;;5044993;28;20041;-60
2023/06/23 04:08:13;;;;;;;1.00;1.00;;;;;;;;;;5044547;28;20052;-60
2023/06/23 04:10:39;;;;;;;0.98;0.93;;;;;;;;;;5043662;28;20509;-60
2023/06/23 04:13:06;;;;;;;1.25;1.10;;;;;;;;;;5044916;28;20048;-61
2023/06/23 04:15:34;;;;;;;1.20;1.10;;;;;;;;;;5044266;28;20463;-60
2023/06/23 04:18:01;;;;;;;1.40;1.30;;;;;;;;;;5044998;28;20091;-60
2023/06/23 04:20:28;;;;;;;1.20;1.10;;;;;;;;;;5044925;28;20318;-60
2023/06/23 04:22:55;;;;;;;1.20;1.10;;;;;;;;;;5044450;28;20079;-60
2023/06/23 04:25:22;;;;;;;1.30;1.20;;;;;;;;;;5044551;28;20120;-60
2023/06/23 04:27:50;;;;;;;1.30;1.20;;;;;;;;;;5044648;28;20997;-60
2023/06/23 04:30:17;;;;;;;1.05;0.95;;;;;;;;;;5043750;28;20040;-59
2023/06/23 04:32:44;;;;;;;1.05;0.98;;;;;;;;;;5044359;28;20041;-60
2023/06/23 04:35:11;;;;;;;1.13;1.00;;;;;;;;;;5044408;28;20119;-60
2023/06/23 04:37:57;;;;;;;1.33;1.23;;;;;;;;;;5043484;28;20496;-60
2023/06/23 04:40:28;;;;;;;0.88;0.88;;;;;;;;;;5043813;28;20545;-60
2023/06/23 04:42:56;;;;;;;1.83;1.20;;;;;;;;;;5045230;28;20052;-60
2023/06/23 04:45:24;;;;;;;1.05;0.93;;;;;;;;;;5043390;28;20045;-60
2023/06/23 04:47:53;;;;;;;1.30;1.20;;;;;;;;;;5044282;28;20098;-60
2023/06/23 04:50:21;;;;;;;0.75;0.75;;;;;;;;;;5044023;28;20911;-60
2023/06/23 04:52:50;;;;;;;0.90;0.90;;;;;;;;;;5044007;28;20045;-60
2023/06/23 04:55:18;;;;;;;0.70;0.70;;;;;;;;;;5044184;28;20036;-60
2023/06/23 04:57:45;;;;;;;0.50;0.50;;;;;;;;;;5043384;28;20348;-60
2023/06/23 05:00:15;;;;;;;0.70;0.70;;;;;;;;;;5026135;28;20084;-60
2023/06/23 05:02:42;;;;;;;0.75;0.75;;;;;;;;;;5043752;28;20084;-60
2023/06/23 05:05:09;;;;;;;0.60;0.60;;;;;;;;;;5043132;28;20036;-60
2023/06/23 05:07:36;;;;;;;0.45;0.45;;;;;;;;;;5043836;28;20119;-60
2023/06/23 05:10:05;;;;;;;0.47;0.47;;;;;;;;;;5043578;28;20166;-61
2023/06/23 05:12:34;;;;;;;0.60;0.60;;;;;;;;;;5042960;28;20459;-60
2023/06/23 05:15:01;;;;;;;0.55;0.50;;;;;;;;;;5043708;28;20178;-60
2023/06/23 05:17:27;;;;;;;0.43;0.43;;;;;;;;;;5044132;28;20048;-60
2023/06/23 05:19:54;;;;;;;0.60;0.60;;;;;;;;;;5042964;28;20040;-60
2023/06/23 05:22:22;;;;;;;0.50;0.43;;;;;;;;;;5043135;28;20056;-60
2023/06/23 05:24:54;;;;;;;0.40;0.40;;;;;;;;;;5043371;28;20460;-60
2023/06/23 05:27:21;;;;;;;0.40;0.40;;;;;;;;;;5042642;28;20049;-60
2023/06/23 05:29:47;;;;;;;0.90;0.40;;;;;;;;;;5043452;28;20280;-60
2023/06/23 05:32:15;;;;;;;0.40;0.40;;;;;;;;;;5043014;28;20040;-60
2023/06/23 05:34:41;;;;;;;0.45;0.45;;;;;;;;;;5042631;28;20052;-60
2023/06/23 05:37:07;;;;;;;0.40;0.40;;;;;;;;;;5043206;28;20055;-60
2023/06/23 05:39:35;;;;;;;0.50;0.50;;;;;;;;;;5043798;28;20048;-60
2023/06/23 05:42:01;;;;;;;0.65;0.65;;;;;;;;;;5042674;28;20471;-60
2023/06/23 05:44:28;;;;;;;0.43;0.40;;;;;;;;;;5043276;28;20045;-60
2023/06/23 05:46:56;;;;;;;1.45;0.60;;;;;;;;;;5042629;28;20053;-60
2023/06/23 05:49:22;;;;;;;0.40;0.40;;;;;;;;;;5043094;28;20397;-60
2023/06/23 05:51:56;;;;;;;0.40;0.40;;;;;;;;;;5043067;28;20618;-60
2023/06/23 05:54:24;;;;;;;0.55;0.55;;;;;;;;;;5042151;28;20051;-60
2023/06/23 05:56:53;;;;;;;0.50;0.50;;;;;;;;;;5043211;28;20087;-60
2023/06/23 05:59:28;;;;;;;0.40;0.40;;;;;;;;;;5042946;28;20679;-60
2023/06/23 06:01:57;;;;;;;0.40;0.38;;;;;;;;;;5042358;28;20044;-60
2023/06/23 06:04:25;;;;;;;0.32;0.32;;;;;;;;;;5042841;28;20081;-60
2023/06/23 06:06:52;;;;;;;0.50;0.40;;;;;;;;;;5043252;28;20095;-60
2023/06/23 06:09:20;;;;;;;0.57;0.57;;;;;;;;;;5042455;28;20522;-60
2023/06/23 06:11:47;;;;;;;0.52;0.52;;;;;;;;;;5042430;28;20063;-60
2023/06/23 06:14:14;;;;;;;0.50;0.43;;;;;;;;;;5042552;28;20247;-60
2023/06/23 06:16:41;;;;;;;0.63;0.63;;;;;;;;;;5042434;28;20045;-59
2023/06/23 06:19:07;;;;;;;0.50;0.50;;;;;;;;;;5043082;28;20425;-61
2023/06/23 06:21:35;;;;;;;0.80;0.60;;;;;;;;;;5042621;28;20307;-61
2023/06/23 06:24:02;;;;;;;0.60;0.60;;;;;;;;;;5042439;28;20119;-60
2023/06/23 06:26:28;;;;;;;0.68;0.68;;;;;;;;;;5043280;28;20041;-60
2023/06/23 06:28:55;;;;;;;0.45;0.45;;;;;;;;;;5043031;28;20033;-59
2023/06/23 06:31:22;;;;;;;0.40;0.40;;;;;;;;;;5041848;28;20049;-60
2023/06/23 06:33:53;;;;;;;0.43;0.43;;;;;;;;;;5042535;28;20045;-60
2023/06/23 06:36:20;;;;;;;0.52;0.52;;;;;;;;;;5041570;28;20120;-60
2023/06/23 06:38:47;;;;;;;0.70;0.52;;;;;;;;;;5042777;28;20048;-60
2023/06/23 06:41:14;;;;;;;0.45;0.45;;;;;;;;;;5042461;28;20453;-60
2023/06/23 06:43:40;;;;;;;0.40;0.40;;;;;;;;;;5041682;28;20055;-60
2023/06/23 06:46:07;;;;;;;0.40;0.40;;;;;;;;;;5042651;28;20515;-60
2023/06/23 06:48:34;;;;;;;0.57;0.40;;;;;;;;;;5042433;28;20043;-60
2023/06/23 06:51:01;;;;;;;0.60;0.60;;;;;;;;;;5041742;28;20045;-60
2023/06/23 06:53:28;;;;;;;0.60;0.60;;;;;;;;;;5042714;28;20040;-61
2023/06/23 06:55:55;;;;;;;0.60;0.60;;;;;;;;;;5042936;28;20068;-60
2023/06/23 06:58:21;;;;;;;0.50;0.50;;;;;;;;;;5044569;28;20059;-60
2023/06/23 07:00:47;;;;;;;0.38;0.30;;;;;;;;;;5046103;28;20094;-61
2023/06/23 07:03:14;;;;;;;0.50;0.50;;;;;;;;;;5045959;28;20049;-63
2023/06/23 07:05:40;;;;;;;0.60;0.60;;;;;;;;;;5045789;28;20048;-63
2023/06/23 07:08:06;;;;;;;0.68;0.68;;;;;;;;;;5046275;28;20078;-63
2023/06/23 07:10:33;;;;;;;0.60;0.60;;;;;;;;;;5045973;28;20068;-62
2023/06/23 07:12:59;;;;;;;0.77;0.77;;;;;;;;;;5045938;28;20080;-62
2023/06/23 07:15:25;;;;;;;0.90;0.60;;;;;;;;;;5028060;28;20083;-62
2023/06/23 07:17:51;;;;;;;0.60;0.60;;;;;;;;;;5045945;28;20112;-62
2023/06/23 07:20:17;;;;;;;0.60;0.60;;;;;;;;;;5045074;28;20404;-62
2023/06/23 07:22:44;;;;;;;1.02;0.95;;;;;;;;;;5045920;28;20528;-62
2023/06/23 07:25:10;;;;;;;1.52;1.20;;;;;;;;;;5045899;28;20041;-62
2023/06/23 07:27:36;;;;;;;1.50;1.40;;;;;;;;;;5027428;28;20508;-63
2023/06/23 07:30:03;;;;;;;1.20;1.15;;;;;;;;;;5045700;28;20037;-62
2023/06/23 07:32:29;;;;;;;1.40;1.27;;;;;;;;;;5045009;28;20373;-62
2023/06/23 07:34:55;;;;;;;1.10;1.00;;;;;;;;;;5045916;28;20044;-62
2023/06/23 07:37:21;;;;;;;1.02;0.93;;;;;;;;;;5045186;28;20037;-62
2023/06/23 07:39:47;;;;;;;0.90;0.90;;;;;;;;;;5045215;28;20067;-62
2023/06/23 07:42:13;;;;;;;1.40;1.30;;;;;;;;;;5045273;28;20504;-62
2023/06/23 07:44:39;;;;;;;1.58;1.48;;;;;;;;;;5045178;28;20048;-62
2023/06/23 07:47:05;;;;;;;1.25;1.20;;;;;;;;;;5044449;28;20564;-62
2023/06/23 07:49:31;;;;;;;1.00;1.00;;;;;;;;;;5045140;28;20091;-62
2023/06/23 07:52:04;;;;;;;1.42;1.33;;;;;;;;;;5045744;28;20484;-62
2023/06/23 07:54:30;;;;;;;0.80;0.80;;;;;;;;;;5044919;28;20040;-62
2023/06/23 07:56:56;;;;;;;0.93;0.93;;;;;;;;;;5045664;28;20305;-62
2023/06/23 07:59:24;;;;;;;0.70;0.70;;;;;;;;;;5044826;28;20041;-62
2023/06/23 08:01:50;;;;;;;1.25;1.15;;;;;;;;;;5044511;28;20136;-62
2023/06/23 08:04:16;;;;;;;1.08;0.98;;;;;;;;;;5044953;28;20045;-62
2023/06/23 08:06:42;;;;;;;2.42;1.00;;;;;;;;;;5044984;28;20091;-62
2023/06/23 08:09:08;;;;;;;1.10;1.10;;;;;;;;;;5043679;28;20045;-63
2023/06/23 08:11:34;;;;;;;0.88;0.88;;;;;;;;;;5026888;28;20068;-62
2023/06/23 08:14:00;;;;;;;0.70;0.70;;;;;;;;;;5045333;28;20051;-62
2023/06/23 08:16:26;;;;;;;2.10;1.20;;;;;;;;;;5044351;28;20602;-62
2023/06/23 08:18:52;;;;;;;1.00;1.00;;;;;;;;;;5044925;28;20047;-62
2023/06/23 08:21:19;;;;;;;0.90;0.90;;;;;;;;;;5044743;28;20053;-61
2023/06/23 08:23:48;;;;;;;0.70;0.70;;;;;;;;;;5043954;28;20059;-60
2023/06/23 08:26:15;;;;;;;1.08;0.85;;;;;;;;;;5044484;28;20558;-61
2023/06/23 08:28:41;;;;;;;1.20;1.10;;;;;;;;;;5043899;28;20059;-61
2023/06/23 08:31:07;;;;;;;0.73;0.73;;;;;;;;;;5044520;28;20443;-61
2023/06/23 08:33:33;;;;;;;0.75;0.75;;;;;;;;;;5044720;28;20080;-61
2023/06/23 08:36:00;;;;;;;0.80;0.80;;;;;;;;;;5044224;28;20159;-61
2023/06/23 08:38:26;;;;;;;1.02;0.82;;;;;;;;;;5044547;28;20436;-61
2023/06/23 08:40:53;;;;;;;0.68;0.68;;;;;;;;;;5044519;28;20052;-61
2023/06/23 08:43:25;;;;;;;1.20;1.10;;;;;;;;;;5043225;28;20045;-61
2023/06/23 08:45:54;;;;;;;0.73;0.65;;;;;;;;;;5044747;28;20048;-63
2023/06/23 08:48:21;;;;;;;0.70;0.70;;;;;;;;;;5044135;28;20040;-62
2023/06/23 08:50:47;;;;;;;0.90;0.90;;;;;;;;;;5043479;28;20512;-62
2023/06/23 08:53:13;;;;;;;0.77;0.77;;;;;;;;;;5044043;28;20048;-62
2023/06/23 08:55:40;;;;;;;1.60;1.08;;;;;;;;;;5043794;28;20040;-62
2023/06/23 08:58:06;;;;;;;1.15;1.05;;;;;;;;;;5043498;28;20045;-62
2023/06/23 09:00:32;;;;;;;0.98;0.98;;;;;;;;;;5044125;28;20037;-62
2023/06/23 09:02:58;;;;;;;0.82;0.80;;;;;;;;;;5044656;28;20052;-62
2023/06/23 09:05:24;;;;;;;1.08;1.08;;;;;;;;;;5043216;28;20041;-62
2023/06/23 09:07:50;;;;;;;0.98;0.98;;;;;;;;;;5043986;28;20037;-62
2023/06/23 09:10:20;;;;;;;0.70;0.70;;;;;;;;;;5043449;28;20049;-62
2023/06/23 09:13:15;;;;;;;0.98;0.70;;;;;;;;;;5043664;28;20060;-62
2023/06/23 09:15:44;;;;;;;0.73;0.73;;;;;;;;;;5026965;28;20114;-62
2023/06/23 09:18:11;;;;;;;0.70;0.70;;;;;;;;;;5043144;28;20083;-62
2023/06/23 09:20:38;;;;;;;0.85;0.85;;;;;;;;;;5043022;28;20045;-62
2023/06/23 09:23:04;;;;;;;1.10;1.00;;;;;;;;;;5044151;28;20049;-62
2023/06/23 09:25:39;;;;;;;0.90;0.90;;;;;;;;;;5043125;28;20246;-62
2023/06/23 09:28:05;;;;;;;1.33;1.10;;;;;;;;;;5043491;28;20106;-62
2023/06/23 09:30:34;;;;;;;0.98;0.90;;;;;;;;;;5043303;28;20562;-62
2023/06/23 09:33:04;;;;;;;1.65;1.35;;;;;;;;;;5043386;28;20423;-62
2023/06/23 09:35:30;;;;;;;1.35;1.20;;;;;;;;;;5043532;28;20493;-62
2023/06/23 09:37:56;;;;;;;1.17;1.10;;;;;;;;;;5043593;28;20099;-62
2023/06/23 09:40:29;;;;;;;1.83;1.73;;;;;;;;;;5042695;28;20483;-62
2023/06/23 09:42:58;;;;;;;1.75;1.65;;;;;;;;;;5043238;28;20500;-62
2023/06/23 09:45:24;;;;;;;1.63;1.52;;;;;;;;;;5042875;28;20037;-62
2023/06/23 09:47:50;;;;;;;1.20;1.10;;;;;;;;;;5024613;28;20123;-63
2023/06/23 09:50:18;;;;;;;1.92;1.75;;;;;;;;;;5043098;28;20148;-63
2023/06/23 09:52:44;;;;;;;1.58;1.48;;;;;;;;;;5043367;28;20088;-63
2023/06/23 09:55:10;;;;;;;1.13;1.13;;;;;;;;;;5042503;28;20146;-62
2023/06/23 09:57:36;;;;;;;1.27;1.17;;;;;;;;;;5043451;28;20045;-62
2023/06/23 10:00:03;;;;;;;1.13;1.13;;;;;;;;;;5043044;28;20119;-62
2023/06/23 10:02:30;;;;;;;1.30;1.20;;;;;;;;;;5043090;28;20041;-62
2023/06/23 10:05:00;;;;;;;1.05;0.95;;;;;;;;;;5058962;28;20056;-62
2023/06/23 10:07:27;;;;;;;1.40;1.30;;;;;;;;;;5043199;28;20562;-62
2023/06/23 10:09:54;;;;;;;1.90;1.80;;;;;;;;;;5043398;28;20160;-62
2023/06/23 10:12:22;;;;;;;1.27;1.27;;;;;;;;;;5042763;28;20060;-62
2023/06/23 10:14:49;;;;;;;2.35;1.92;;;;;;;;;;5042329;28;20120;-62
2023/06/23 10:17:15;;;;;;;1.80;1.70;;;;;;;;;;5043118;28;20044;-62
2023/06/23 10:19:41;;;;;;;1.60;1.50;;;;;;;;;;5043302;28;20788;-62
2023/06/23 10:22:09;;;;;;;0.98;0.98;;;;;;;;;;5042021;28;20545;-63
2023/06/23 10:24:36;;;;;;;1.55;1.45;;;;;;;;;;5043149;28;20049;-62
2023/06/23 10:27:02;;;;;;;1.63;1.52;;;;;;;;;;5043395;28;20179;-62
2023/06/23 10:29:30;;;;;;;1.63;1.42;;;;;;;;;;5042491;28;20421;-62
2023/06/23 10:31:59;;;;;;;2.55;1.60;;;;;;;;;;5061537;28;20052;-62
2023/06/23 10:34:26;;;;;;;1.63;1.52;;;;;;;;;;5047040;28;20040;-62
2023/06/23 10:36:55;;;;;;;1.42;1.33;;;;;;;;;;5046139;28;20041;-62
2023/06/23 10:39:22;;;;;;;1.67;1.58;;;;;;;;;;5046667;28;20127;-62
2023/06/23 10:41:51;;;;;;;3.35;1.85;;;;;;;;;;5046558;28;20063;-62
2023/06/23 10:44:17;;;;;;;2.80;2.38;;;;;;;;;;5045965;28;20045;-62
2023/06/23 10:46:43;;;;;;;2.25;2.08;;;;;;;;;;5046610;28;20065;-62
2023/06/23 10:49:09;;;;;;;1.80;1.70;;;;;;;;;;5046356;28;20554;-62
2023/06/23 10:51:36;;;;;;;1.80;1.70;;;;;;;;;;5045909;28;20045;-63
2023/06/23 10:54:05;;;;;;;2.80;2.60;;;;;;;;;;5047105;28;20401;-62
2023/06/23 10:56:35;;;;;;;2.45;2.25;;;;;;;;;;5046234;28;20052;-62
2023/06/23 10:59:17;;;;;;;2.83;2.63;;;;;;;;;;5047091;28;20063;-62
2023/06/23 11:02:03;;;;;;;2.42;2.22;;;;;;;;;;5046535;28;20047;-62
2023/06/23 11:04:29;;;;;;;2.55;2.35;;;;;;;;;;5046025;28;20371;-62
2023/06/23 11:07:07;;;;;;;2.60;2.50;;;;;;;;;;5046375;28;20119;-62
2023/06/23 11:09:39;;;;;;;2.83;2.63;;;;;;;;;;5046338;28;20044;-63
2023/06/23 11:12:42;;;;;;;2.55;2.20;;;;;;;;;;5045012;28;20072;-62
2023/06/23 11:15:08;;;;;;;2.70;2.50;;;;;;;;;;4964129;28;20062;-62
2023/06/23 11:17:46;;;;;;;2.88;2.67;;;;;;;;;;5029772;28;20041;-62
2023/06/23 11:20:13;;;;;;;2.35;2.25;;;;;;;;;;5046131;28;20049;-63
2023/06/23 11:22:43;;;;;;;2.00;1.90;;;;;;;;;;5046473;28;20049;-62
2023/06/23 11:25:09;;;;;;;2.55;2.42;;;;;;;;;;5044936;28;20088;-62
2023/06/23 11:27:36;;;;;;;2.53;2.40;;;;;;;;;;5045767;28;20098;-63
2023/06/23 11:30:15;;;;;;;2.20;2.10;;;;;;;;;;5046175;28;20041;-63
2023/06/23 11:32:41;;;;;;;2.92;2.58;;;;;;;;;;5044763;28;20500;-63
2023/06/23 11:35:09;;;;;;;2.90;2.70;;;;;;;;;;5045499;28;20095;-62
2023/06/23 11:37:36;;;;;;;2.70;2.50;;;;;;;;;;5045309;28;20048;-62
2023/06/23 11:40:04;;;;;;;2.03;1.92;;;;;;;;;;5045296;28;20114;-62
2023/06/23 11:42:30;;;;;;;2.40;2.15;;;;;;;;;;5045080;28;20103;-62
2023/06/23 11:45:00;;;;;;;1.67;1.58;;;;;;;;;;5027886;28;20808;-62
2023/06/23 11:47:29;;;;;;;2.35;2.03;;;;;;;;;;5044682;28;20135;-63
2023/06/23 11:49:55;;;;;;;2.65;2.45;;;;;;;;;;5045464;28;20048;-62
2023/06/23 11:52:22;;;;;;;2.40;2.20;;;;;;;;;;5045205;28;20056;-62
2023/06/23 11:54:48;;;;;;;2.70;2.40;;;;;;;;;;5044574;28;20492;-62
2023/06/23 11:57:19;;;;;;;2.20;2.10;;;;;;;;;;5045236;28;20043;-62
2023/06/23 11:59:45;;;;;;;2.47;2.28;;;;;;;;;;5045392;28;20037;-62
2023/06/23 12:02:11;;;;;;;2.40;2.30;;;;;;;;;;5045450;28;20051;-62
2023/06/23 12:04:39;;;;;;;2.17;1.98;;;;;;;;;;5045285;28;20087;-62
2023/06/23 12:07:05;;;;;;;1.95;1.80;;;;;;;;;;5044482;28;20056;-63
2023/06/23 12:09:31;;;;;;;2.10;2.00;;;;;;;;;;5045673;28;20611;-63
2023/06/23 12:11:58;;;;;;;1.88;1.77;;;;;;;;;;5044910;28;20152;-62
2023/06/23 12:14:31;;;;;;;2.17;1.95;;;;;;;;;;5044716;28;20048;-62
2023/06/23 12:17:23;;;;;;;1.92;1.67;;;;;;;;;;5045427;28;20447;-62
2023/06/23 12:19:49;;;;;;;2.65;2.20;;;;;;;;;;5041238;28;20049;-62
2023/06/23 12:22:16;;;;;;;1.65;1.55;;;;;;;;;;5044004;28;20554;-62
2023/06/23 12:24:43;;;;;;;2.15;2.00;;;;;;;;;;5044796;28;20041;-62
2023/06/23 12:27:10;;;;;;;1.80;1.70;;;;;;;;;;5044712;28;20033;-62
2023/06/23 12:29:36;;;;;;;1.35;1.25;;;;;;;;;;5044267;28;20045;-62
2023/06/23 12:32:03;;;;;;;1.30;1.20;;;;;;;;;;5045474;28;20037;-63
2023/06/23 12:34:33;;;;;;;2.05;1.83;;;;;;;;;;5045093;28;20049;-62
2023/06/23 12:37:03;;;;;;;2.15;1.70;;;;;;;;;;5044806;28;20194;-63
2023/06/23 12:39:30;;;;;;;1.70;1.60;;;;;;;;;;5045060;28;20455;-63
2023/06/23 12:41:57;;;;;;;1.25;1.20;;;;;;;;;;5043833;28;20493;-63
2023/06/23 12:44:27;;;;;;;1.67;1.25;;;;;;;;;;5044549;28;20484;-62
2023/06/23 12:46:54;;;;;;;1.50;1.40;;;;;;;;;;5044538;28;20053;-62
2023/06/23 12:49:27;;;;;;;1.38;1.27;;;;;;;;;;5044016;28;20485;-62
2023/06/23 12:51:53;;;;;;;1.67;1.58;;;;;;;;;;5044493;28;20781;-62
2023/06/23 12:54:19;;;;;;;1.63;1.52;;;;;;;;;;5044550;28;20040;-62
2023/06/23 12:56:45;;;;;;;1.60;1.10;;;;;;;;;;5043733;28;20053;-62
2023/06/23 12:59:11;;;;;;;1.45;1.35;;;;;;;;;;5044047;28;20049;-62
2023/06/23 13:01:37;;;;;;;1.60;1.50;;;;;;;;;;5044210;28;20128;-62
2023/06/23 13:04:04;;;;;;;1.60;1.50;;;;;;;;;;5043936;28;20068;-62
2023/06/23 13:06:30;;;;;;;1.33;1.23;;;;;;;;;;5044734;28;20033;-62
2023/06/23 13:08:56;;;;;;;1.45;1.35;;;;;;;;;;5044165;28;20037;-62
2023/06/23 13:11:23;;;;;;;1.27;1.20;;;;;;;;;;5043107;28;20486;-62
2023/06/23 13:13:49;;;;;;;1.60;1.50;;;;;;;;;;5044631;28;20049;-62
2023/06/23 13:16:17;;;;;;;1.30;1.20;;;;;;;;;;5043755;28;20076;-62
2023/06/23 13:18:43;;;;;;;1.00;1.00;;;;;;;;;;5043363;28;20098;-62
2023/06/23 13:21:09;;;;;;;1.60;1.17;;;;;;;;;;5043583;28;20041;-62
2023/06/23 13:23:35;;;;;;;1.33;1.23;;;;;;;;;;5043554;28;20546;-62
2023/06/23 13:26:01;;;;;;;1.50;1.00;;;;;;;;;;5043410;28;20216;-63
2023/06/23 13:28:27;;;;;;;1.23;1.10;;;;;;;;;;5043277;28;20041;-62
2023/06/23 13:30:53;;;;;;;1.17;1.08;;;;;;;;;;5043486;28;20080;-62
2023/06/23 13:33:21;;;;;;;1.50;1.10;;;;;;;;;;5042894;28;20095;-62
2023/06/23 13:35:48;;;;;;;1.20;1.10;;;;;;;;;;5043861;28;20056;-62
2023/06/23 13:38:14;;;;;;;0.90;0.90;;;;;;;;;;5042876;28;20057;-62
2023/06/23 13:40:40;;;;;;;0.88;0.80;;;;;;;;;;5043795;28;20396;-62
2023/06/23 13:43:06;;;;;;;1.08;0.88;;;;;;;;;;5043378;28;20029;-63
2023/06/23 13:45:32;;;;;;;1.98;1.35;;;;;;;;;;5043197;28;20283;-63
2023/06/23 13:47:58;;;;;;;0.93;0.93;;;;;;;;;;5044033;28;20123;-63
2023/06/23 13:50:24;;;;;;;1.38;1.13;;;;;;;;;;5043181;28;20048;-63
2023/06/23 13:52:50;;;;;;;1.42;1.20;;;;;;;;;;5042502;28;20110;-62
2023/06/23 13:55:16;;;;;;;1.10;1.00;;;;;;;;;;5042865;28;20040;-62
2023/06/23 13:57:42;;;;;;;1.20;1.10;;;;;;;;;;5043764;28;20060;-62
2023/06/23 14:00:10;;;;;;;1.15;1.00;;;;;;;;;;5042192;28;20480;-62
2023/06/23 14:02:36;;;;;;;1.05;0.90;;;;;;;;;;5043194;28;20064;-62
2023/06/23 14:05:02;;;;;;;1.23;1.13;;;;;;;;;;5043904;28;20044;-62
2023/06/23 14:07:28;;;;;;;1.30;1.20;;;;;;;;;;5042065;28;20041;-62
2023/06/23 14:09:55;;;;;;;1.38;1.27;;;;;;;;;;5043063;28;20053;-62
2023/06/23 14:12:21;;;;;;;0.80;0.80;;;;;;;;;;5042672;28;20428;-63
2023/06/23 14:14:47;;;;;;;1.05;0.95;;;;;;;;;;5042654;28;20136;-63
2023/06/23 14:17:13;;;;;;;1.23;0.77;;;;;;;;;;5043229;28;20122;-63
2023/06/23 14:19:39;;;;;;;0.70;0.70;;;;;;;;;;5042956;28;20060;-63
2023/06/23 14:22:05;;;;;;;0.98;0.88;;;;;;;;;;5042352;28;20048;-63
2023/06/23 14:24:34;;;;;;;0.93;0.90;;;;;;;;;;5043336;28;20079;-63
2023/06/23 14:27:00;;;;;;;0.95;0.95;;;;;;;;;;5043227;28;20080;-63
2023/06/23 14:29:26;;;;;;;1.02;1.00;;;;;;;;;;5042103;28;20663;-63
2023/06/23 14:31:52;;;;;;;1.50;1.08;;;;;;;;;;5042390;28;20081;-62
2023/06/23 14:34:18;;;;;;;0.90;0.90;;;;;;;;;;5042780;28;20048;-63
2023/06/23 14:36:45;;;;;;;1.00;1.00;;;;;;;;;;5042540;28;20080;-63
2023/06/23 14:39:12;;;;;;;1.55;1.10;;;;;;;;;;5042756;28;20120;-63
2023/06/23 14:41:39;;;;;;;0.80;0.80;;;;;;;;;;5041880;28;20639;-63
2023/06/23 14:44:06;;;;;;;0.60;0.60;;;;;;;;;;5042727;28;20112;-62
2023/06/23 14:46:32;;;;;;;1.23;0.90;;;;;;;;;;5043263;28;20037;-63